Time;durP1;ratioP1;P1;durP2;ratioP2;P2;SDS_P1;SDS_P2;PMS_P1;PMS_P2;Temp;Humidity;BMP_temperature;BMP_pressure;BME280_temperature;BME280_humidity;BME280_pressure;Samples;Min_cycle;Max_cycle;Signal;HPM_P1;HPM_P2
2024/04/08 00:00:55;;;;;;;7.57;1.90;;;;;;;;;;5059893;28;20048;-75
2024/04/08 00:03:20;;;;;;;8.18;2.13;;;;;;;;;;5056941;28;20052;-75
2024/04/08 00:05:47;;;;;;;7.78;3.03;;;;;;;;;;5052675;28;20060;-75
2024/04/08 00:08:13;;;;;;;10.77;2.42;;;;;;;;;;5051909;28;20425;-75
2024/04/08 00:10:38;;;;;;;9.60;2.00;;;;;;;;;;5059750;28;20062;-76
2024/04/08 00:13:05;;;;;;;7.35;1.67;;;;;;;;;;5059770;28;20063;-76
2024/04/08 00:15:31;;;;;;;8.70;1.95;;;;;;;;;;5059715;28;20052;-76
2024/04/08 00:17:56;;;;;;;6.20;2.15;;;;;;;;;;5059893;28;20127;-76
2024/04/08 00:20:22;;;;;;;8.20;2.00;;;;;;;;;;5076210;28;20044;-75
2024/04/08 00:22:51;;;;;;;7.82;1.90;;;;;;;;;;5059379;28;20055;-76
2024/04/08 00:25:17;;;;;;;8.55;2.30;;;;;;;;;;5059540;28;20494;-76
2024/04/08 00:27:43;;;;;;;9.27;2.13;;;;;;;;;;5076359;28;20464;-75
2024/04/08 00:30:08;;;;;;;5.97;2.17;;;;;;;;;;5058210;28;20055;-76
2024/04/08 00:32:34;;;;;;;9.18;2.13;;;;;;;;;;5076328;28;20055;-76
2024/04/08 00:35:00;;;;;;;10.45;2.22;;;;;;;;;;5059000;28;20518;-75
2024/04/08 00:37:25;;;;;;;6.93;1.90;;;;;;;;;;5058760;28;20090;-76
2024/04/08 00:39:51;;;;;;;11.88;2.05;;;;;;;;;;5059030;28;20052;-75
2024/04/08 00:42:17;;;;;;;5.50;1.60;;;;;;;;;;5059425;28;20060;-76
2024/04/08 00:44:42;;;;;;;5.85;2.33;;;;;;;;;;5059525;28;20084;-76
2024/04/08 00:47:09;;;;;;;8.18;2.10;;;;;;;;;;5042579;28;20071;-76
2024/04/08 00:49:34;;;;;;;4.68;2.05;;;;;;;;;;5059130;28;20101;-76
2024/04/08 00:52:00;;;;;;;6.10;2.00;;;;;;;;;;5057610;28;20079;-76
2024/04/08 00:54:25;;;;;;;6.90;1.65;;;;;;;;;;5059395;28;20090;-76
2024/04/08 00:56:52;;;;;;;7.50;1.40;;;;;;;;;;5058017;28;20044;-75
2024/04/08 00:59:17;;;;;;;9.45;2.33;;;;;;;;;;5041813;28;20066;-75
2024/04/08 01:01:43;;;;;;;6.72;2.15;;;;;;;;;;5058485;28;20550;-75
2024/04/08 01:04:08;;;;;;;6.15;2.38;;;;;;;;;;5057590;28;20048;-76
2024/04/08 01:06:34;;;;;;;14.10;2.67;;;;;;;;;;5074810;28;20060;-76
2024/04/08 01:09:00;;;;;;;12.68;2.28;;;;;;;;;;5041399;28;20055;-75
2024/04/08 01:11:25;;;;;;;6.55;1.80;;;;;;;;;;5058055;28;20056;-76
2024/04/08 01:13:51;;;;;;;8.27;1.70;;;;;;;;;;5074912;28;20047;-76
2024/04/08 01:16:17;;;;;;;8.85;2.88;;;;;;;;;;5057687;28;20126;-76
2024/04/08 01:18:43;;;;;;;9.15;2.38;;;;;;;;;;5058062;28;20044;-76
2024/04/08 01:21:08;;;;;;;9.60;1.95;;;;;;;;;;5074590;28;20044;-76
2024/04/08 01:23:36;;;;;;;10.57;2.13;;;;;;;;;;5074462;28;20048;-75
2024/04/08 01:26:02;;;;;;;8.90;2.55;;;;;;;;;;5057615;28;20056;-75
2024/04/08 01:28:27;;;;;;;5.90;1.88;;;;;;;;;;5074438;28;20051;-75
2024/04/08 01:30:55;;;;;;;7.25;1.95;;;;;;;;;;5057931;28;20056;-76
2024/04/08 01:33:21;;;;;;;9.40;2.35;;;;;;;;;;5078425;28;20077;-76
2024/04/08 01:35:47;;;;;;;11.63;2.30;;;;;;;;;;5041947;28;20048;-75
2024/04/08 01:38:12;;;;;;;6.95;1.95;;;;;;;;;;5058811;28;20603;-75
2024/04/08 01:40:38;;;;;;;11.07;2.10;;;;;;;;;;5057713;28;20066;-75
2024/04/08 01:43:03;;;;;;;7.78;1.98;;;;;;;;;;5066988;28;20044;-76
2024/04/08 01:45:29;;;;;;;4.32;1.70;;;;;;;;;;5074053;28;20051;-76
2024/04/08 01:47:54;;;;;;;8.88;2.75;;;;;;;;;;5073824;28;20052;-75
2024/04/08 01:50:20;;;;;;;7.63;2.00;;;;;;;;;;5073701;28;20040;-75
2024/04/08 01:52:45;;;;;;;9.80;2.53;;;;;;;;;;5073993;28;20059;-76
2024/04/08 01:55:11;;;;;;;7.45;2.20;;;;;;;;;;5073977;28;20054;-76
2024/04/08 01:57:36;;;;;;;7.80;2.15;;;;;;;;;;5073748;28;20048;-75
2024/04/08 02:00:02;;;;;;;6.40;2.63;;;;;;;;;;5074278;28;20497;-75
2024/04/08 02:02:28;;;;;;;7.90;2.20;;;;;;;;;;5074657;28;20106;-75
2024/04/08 02:04:53;;;;;;;11.50;3.40;;;;;;;;;;5057548;28;20056;-76
2024/04/08 02:07:19;;;;;;;13.25;2.25;;;;;;;;;;5074112;28;20056;-75
2024/04/08 02:09:44;;;;;;;6.65;1.83;;;;;;;;;;5057142;28;20052;-75
2024/04/08 02:12:10;;;;;;;5.70;1.83;;;;;;;;;;5073724;28;20052;-75
2024/04/08 02:14:35;;;;;;;6.93;2.40;;;;;;;;;;5074131;28;20063;-76
2024/04/08 02:17:01;;;;;;;8.88;2.00;;;;;;;;;;5073534;28;20048;-75
2024/04/08 02:19:27;;;;;;;7.63;2.38;;;;;;;;;;5073502;28;20521;-75
2024/04/08 02:21:52;;;;;;;8.75;2.88;;;;;;;;;;5040386;28;20059;-75
2024/04/08 02:24:18;;;;;;;12.38;2.15;;;;;;;;;;5073638;28;20059;-76
2024/04/08 02:26:43;;;;;;;5.93;2.00;;;;;;;;;;5074278;28;20063;-75
2024/04/08 02:29:09;;;;;;;7.03;2.50;;;;;;;;;;5057615;28;20517;-75
2024/04/08 02:31:35;;;;;;;6.25;2.05;;;;;;;;;;5076162;28;20056;-74
2024/04/08 02:34:00;;;;;;;6.55;2.30;;;;;;;;;;5081168;28;20460;-74
2024/04/08 02:36:27;;;;;;;11.05;2.33;;;;;;;;;;5084744;28;20063;-75
2024/04/08 02:38:52;;;;;;;6.38;2.67;;;;;;;;;;5076193;28;20490;-76
2024/04/08 02:41:18;;;;;;;8.82;2.88;;;;;;;;;;5057494;28;20044;-76
2024/04/08 02:43:43;;;;;;;8.18;2.47;;;;;;;;;;5057548;28;20052;-76
2024/04/08 02:46:09;;;;;;;8.98;1.98;;;;;;;;;;5073755;28;20044;-75
2024/04/08 02:48:37;;;;;;;10.25;2.58;;;;;;;;;;5074017;28;20058;-76
2024/04/08 02:51:04;;;;;;;7.80;2.22;;;;;;;;;;5073763;28;20052;-75
2024/04/08 02:53:30;;;;;;;9.38;2.28;;;;;;;;;;5041597;28;20059;-76
2024/04/08 02:56:00;;;;;;;9.30;2.75;;;;;;;;;;5077528;28;20051;-76
2024/04/08 02:58:26;;;;;;;11.85;2.72;;;;;;;;;;5060919;28;20055;-76
2024/04/08 03:00:51;;;;;;;23.75;14.20;;;;;;;;;;5077501;28;20048;-76
2024/04/08 03:03:20;;;;;;;11.27;4.13;;;;;;;;;;5060756;28;20068;-76
2024/04/08 03:05:45;;;;;;;10.90;3.55;;;;;;;;;;5060618;28;20059;-75
2024/04/08 03:08:11;;;;;;;6.28;2.95;;;;;;;;;;5060855;28;20056;-76
2024/04/08 03:10:36;;;;;;;8.63;2.55;;;;;;;;;;5060647;28;20056;-76
2024/04/08 03:13:02;;;;;;;13.93;2.95;;;;;;;;;;5060662;28;20055;-75
2024/04/08 03:15:27;;;;;;;15.73;2.65;;;;;;;;;;5060631;28;20082;-76
2024/04/08 03:17:53;;;;;;;7.72;2.00;;;;;;;;;;5081918;28;20061;-76
2024/04/08 03:20:18;;;;;;;11.65;2.45;;;;;;;;;;5061199;28;20056;-76
2024/04/08 03:22:44;;;;;;;7.82;2.40;;;;;;;;;;5061056;28;20060;-76
2024/04/08 03:25:10;;;;;;;9.48;2.78;;;;;;;;;;5060914;28;20417;-75
2024/04/08 03:27:35;;;;;;;5.60;2.28;;;;;;;;;;5060970;28;20505;-76
2024/04/08 03:30:01;;;;;;;8.30;2.53;;;;;;;;;;5060817;28;20127;-76
2024/04/08 03:32:26;;;;;;;6.80;2.40;;;;;;;;;;5077041;28;20072;-76
2024/04/08 03:34:52;;;;;;;8.57;1.95;;;;;;;;;;5060451;28;20099;-75
2024/04/08 03:37:25;;;;;;;8.98;2.72;;;;;;;;;;5060092;28;20048;-76
2024/04/08 03:39:50;;;;;;;8.43;2.72;;;;;;;;;;5063096;28;20048;-75
2024/04/08 03:42:16;;;;;;;8.93;2.20;;;;;;;;;;5044392;28;20102;-75
2024/04/08 03:44:41;;;;;;;11.00;2.85;;;;;;;;;;5060288;28;20071;-76
2024/04/08 03:47:07;;;;;;;10.50;2.35;;;;;;;;;;5059753;28;20113;-76
2024/04/08 03:49:32;;;;;;;6.75;2.35;;;;;;;;;;5060052;28;20064;-75
2024/04/08 03:51:58;;;;;;;7.38;2.92;;;;;;;;;;5060033;28;20048;-75
2024/04/08 03:54:23;;;;;;;7.13;2.58;;;;;;;;;;5060433;28;20055;-76
2024/04/08 03:56:49;;;;;;;9.82;2.70;;;;;;;;;;5059447;28;20456;-75
2024/04/08 03:59:14;;;;;;;10.35;3.10;;;;;;;;;;5059953;28;20126;-76
2024/04/08 04:01:40;;;;;;;6.28;2.50;;;;;;;;;;5060126;28;20055;-75
2024/04/08 04:04:05;;;;;;;6.68;2.55;;;;;;;;;;5059702;28;20047;-76
2024/04/08 04:06:31;;;;;;;12.80;3.00;;;;;;;;;;5058284;28;20052;-76
2024/04/08 04:08:56;;;;;;;8.30;2.88;;;;;;;;;;5059759;28;20498;-75
2024/04/08 04:11:25;;;;;;;9.93;2.83;;;;;;;;;;5059780;28;20052;-76
2024/04/08 04:13:51;;;;;;;9.00;2.33;;;;;;;;;;5059382;28;20056;-76
2024/04/08 04:16:16;;;;;;;7.88;2.55;;;;;;;;;;5059154;28;20052;-75
2024/04/08 04:18:42;;;;;;;13.57;2.97;;;;;;;;;;5059494;28;20387;-75
2024/04/08 04:21:07;;;;;;;9.27;3.17;;;;;;;;;;5059241;28;20427;-76
2024/04/08 04:23:33;;;;;;;13.20;2.88;;;;;;;;;;5060480;28;20044;-76
2024/04/08 04:25:59;;;;;;;9.52;2.70;;;;;;;;;;5062529;28;20052;-76
2024/04/08 04:28:24;;;;;;;9.70;3.63;;;;;;;;;;5084501;28;20109;-75
2024/04/08 04:30:52;;;;;;;9.98;2.88;;;;;;;;;;5064413;28;20060;-76
2024/04/08 04:33:17;;;;;;;21.58;3.80;;;;;;;;;;5069791;28;20055;-75
2024/04/08 04:35:50;;;;;;;10.68;3.30;;;;;;;;;;5079243;28;20060;-74
2024/04/08 04:38:16;;;;;;;11.50;3.28;;;;;;;;;;5094486;28;20044;-76
2024/04/08 04:40:41;;;;;;;10.35;3.00;;;;;;;;;;5077020;28;20055;-75
2024/04/08 04:43:07;;;;;;;15.63;4.32;;;;;;;;;;5069303;28;20131;-75
2024/04/08 04:45:32;;;;;;;6.75;2.72;;;;;;;;;;5060001;28;20503;-76
2024/04/08 04:47:58;;;;;;;7.80;3.03;;;;;;;;;;5059022;28;20517;-76
2024/04/08 04:50:23;;;;;;;12.73;3.20;;;;;;;;;;5075814;28;20556;-76
2024/04/08 04:52:49;;;;;;;8.45;2.72;;;;;;;;;;5059395;28;20059;-76
2024/04/08 04:55:14;;;;;;;7.90;2.40;;;;;;;;;;5042901;28;20457;-76
2024/04/08 04:57:40;;;;;;;6.20;2.33;;;;;;;;;;5058921;28;20048;-76
2024/04/08 05:00:06;;;;;;;10.82;3.38;;;;;;;;;;5058825;28;20498;-75
2024/04/08 05:02:31;;;;;;;6.82;2.30;;;;;;;;;;5075978;28;20466;-76
2024/04/08 05:04:57;;;;;;;8.70;3.10;;;;;;;;;;5059311;28;20133;-75
2024/04/08 05:07:22;;;;;;;6.93;2.70;;;;;;;;;;5058365;28;20052;-76
2024/04/08 05:09:48;;;;;;;9.90;2.42;;;;;;;;;;5058366;28;20525;-76
2024/04/08 05:12:13;;;;;;;9.50;2.92;;;;;;;;;;5058310;28;20441;-75
2024/04/08 05:14:39;;;;;;;7.75;2.63;;;;;;;;;;5057944;28;20095;-76
2024/04/08 05:17:04;;;;;;;6.50;2.30;;;;;;;;;;5056541;28;20052;-76
2024/04/08 05:19:30;;;;;;;6.63;2.65;;;;;;;;;;5058036;28;20048;-76
2024/04/08 05:21:57;;;;;;;13.45;2.53;;;;;;;;;;5057971;28;20048;-76
2024/04/08 05:24:22;;;;;;;10.93;2.28;;;;;;;;;;5058293;28;20052;-76
2024/04/08 05:26:48;;;;;;;9.55;2.10;;;;;;;;;;5057927;28;20399;-76
2024/04/08 05:29:13;;;;;;;10.32;2.55;;;;;;;;;;5057703;28;20059;-75
2024/04/08 05:31:39;;;;;;;5.85;2.75;;;;;;;;;;5057953;28;20097;-76
2024/04/08 05:34:04;;;;;;;7.63;2.20;;;;;;;;;;5059517;28;20052;-76
2024/04/08 05:36:30;;;;;;;9.23;2.90;;;;;;;;;;5075053;28;20048;-76
2024/04/08 05:38:56;;;;;;;6.25;2.30;;;;;;;;;;5058233;28;20048;-75
2024/04/08 05:41:21;;;;;;;11.88;3.08;;;;;;;;;;5061585;28;20048;-77
2024/04/08 05:43:47;;;;;;;8.70;2.40;;;;;;;;;;5045210;28;20506;-77
2024/04/08 05:46:12;;;;;;;13.52;3.38;;;;;;;;;;5062563;28;20063;-75
2024/04/08 05:48:38;;;;;;;10.88;3.25;;;;;;;;;;5070129;28;20048;-75
2024/04/08 05:51:04;;;;;;;5.30;2.10;;;;;;;;;;5069218;28;20120;-76
2024/04/08 05:53:29;;;;;;;13.32;3.03;;;;;;;;;;5042103;28;20514;-77
2024/04/08 05:55:55;;;;;;;8.98;2.47;;;;;;;;;;5057443;28;20059;-76
2024/04/08 05:59:33;;;;;;;10.05;2.22;;;;;;;;;;5581131;25;20007;-76
2024/04/08 06:02:00;;;;;;;8.57;2.65;;;;;;;;;;5481377;25;20020;-77
2024/04/08 06:04:27;;;;;;;16.33;3.95;;;;;;;;;;5511512;25;20008;-77
2024/04/08 06:06:54;;;;;;;7.60;2.38;;;;;;;;;;5476257;26;20006;-76
2024/04/08 06:09:20;;;;;;;9.50;2.30;;;;;;;;;;5474116;26;20009;-76
2024/04/08 06:11:47;;;;;;;7.97;2.00;;;;;;;;;;5474057;26;20339;-77
2024/04/08 06:14:14;;;;;;;7.35;3.13;;;;;;;;;;5475119;26;20038;-77
2024/04/08 06:16:40;;;;;;;9.35;3.22;;;;;;;;;;5475540;26;20002;-76
2024/04/08 06:19:08;;;;;;;10.30;2.30;;;;;;;;;;5445635;25;20568;-76
2024/04/08 06:21:34;;;;;;;10.48;2.03;;;;;;;;;;5444955;26;20002;-76
2024/04/08 06:24:02;;;;;;;7.43;2.70;;;;;;;;;;5444365;26;20002;-77
2024/04/08 06:26:29;;;;;;;12.43;3.08;;;;;;;;;;5443784;26;20379;-77
2024/04/08 06:28:56;;;;;;;11.88;2.10;;;;;;;;;;5443547;26;20335;-76
2024/04/08 06:31:22;;;;;;;9.02;2.22;;;;;;;;;;5444047;26;20001;-76
2024/04/08 06:33:49;;;;;;;7.90;2.10;;;;;;;;;;5473757;26;20403;-77
2024/04/08 06:36:16;;;;;;;8.00;3.28;;;;;;;;;;5473310;26;20006;-76
2024/04/08 06:38:42;;;;;;;10.52;2.67;;;;;;;;;;5473724;26;20016;-75
2024/04/08 06:41:11;;;;;;;6.07;2.83;;;;;;;;;;5473603;26;20009;-77
2024/04/08 06:43:38;;;;;;;11.93;3.45;;;;;;;;;;5473978;26;19998;-77
2024/04/08 06:46:05;;;;;;;6.32;2.88;;;;;;;;;;5473507;26;20344;-77
2024/04/08 06:48:32;;;;;;;16.70;2.42;;;;;;;;;;5473896;26;20038;-77
2024/04/08 06:50:58;;;;;;;9.07;2.70;;;;;;;;;;5474138;26;20006;-77
2024/04/08 06:53:25;;;;;;;8.25;2.50;;;;;;;;;;5474779;26;20344;-77
2024/04/08 06:55:52;;;;;;;7.90;1.83;;;;;;;;;;5474127;26;20013;-77
2024/04/08 06:58:19;;;;;;;8.95;2.10;;;;;;;;;;5474255;26;20471;-77
2024/04/08 07:00:46;;;;;;;11.38;2.38;;;;;;;;;;5474007;26;20001;-77
2024/04/08 07:03:13;;;;;;;4.88;1.98;;;;;;;;;;5459140;26;20086;-77
2024/04/08 07:05:40;;;;;;;12.15;2.78;;;;;;;;;;5473782;26;20006;-77
2024/04/08 07:08:07;;;;;;;9.88;2.75;;;;;;;;;;5443391;26;20409;-78
2024/04/08 07:10:36;;;;;;;20.33;4.18;;;;;;;;;;5459833;26;20397;-77
2024/04/08 07:13:03;;;;;;;9.35;2.58;;;;;;;;;;5458507;26;20025;-77
2024/04/08 07:15:29;;;;;;;7.95;2.30;;;;;;;;;;5428142;26;20013;-77
2024/04/08 07:17:56;;;;;;;5.68;2.28;;;;;;;;;;5458161;26;20017;-77
2024/04/08 07:20:23;;;;;;;13.32;3.00;;;;;;;;;;5458957;26;20340;-77
2024/04/08 07:22:50;;;;;;;8.40;2.75;;;;;;;;;;5490240;26;20070;-77
2024/04/08 07:25:16;;;;;;;7.60;2.33;;;;;;;;;;5458659;26;20483;-77
2024/04/08 07:27:43;;;;;;;11.90;2.70;;;;;;;;;;5458395;26;20013;-77
2024/04/08 07:30:11;;;;;;;8.50;2.05;;;;;;;;;;5457389;26;20002;-77
2024/04/08 07:32:38;;;;;;;10.68;2.83;;;;;;;;;;5458387;26;19998;-77
2024/04/08 07:35:05;;;;;;;10.90;2.05;;;;;;;;;;5458372;26;20006;-77
2024/04/08 07:37:32;;;;;;;11.18;2.25;;;;;;;;;;5458521;26;19994;-78
2024/04/08 07:39:59;;;;;;;6.50;2.33;;;;;;;;;;5461332;26;20462;-77
2024/04/08 07:42:26;;;;;;;12.07;2.42;;;;;;;;;;5460768;26;20038;-78
2024/04/08 07:44:52;;;;;;;11.18;2.72;;;;;;;;;;5459577;26;20006;-78
2024/04/08 07:47:20;;;;;;;9.18;2.35;;;;;;;;;;5427921;26;20012;-76
2024/04/08 07:49:47;;;;;;;9.63;2.83;;;;;;;;;;5457578;26;20002;-75
2024/04/08 07:52:14;;;;;;;13.02;2.90;;;;;;;;;;5427988;26;20471;-75
2024/04/08 07:54:41;;;;;;;12.13;2.47;;;;;;;;;;5427786;26;20002;-76
2024/04/08 07:57:08;;;;;;;12.38;2.53;;;;;;;;;;5426712;26;20358;-76
2024/04/08 07:59:36;;;;;;;9.10;2.65;;;;;;;;;;5427494;26;20006;-76
2024/04/08 08:02:02;;;;;;;10.27;3.00;;;;;;;;;;5427964;26;20003;-77
2024/04/08 08:04:29;;;;;;;10.40;2.33;;;;;;;;;;5427463;26;20048;-77
2024/04/08 08:06:56;;;;;;;7.57;2.42;;;;;;;;;;5427109;26;20017;-76
2024/04/08 08:09:22;;;;;;;9.15;2.10;;;;;;;;;;5456936;26;20003;-76
2024/04/08 08:11:49;;;;;;;11.82;2.13;;;;;;;;;;5456990;26;20480;-77
2024/04/08 08:14:16;;;;;;;7.53;2.47;;;;;;;;;;5457467;26;20010;-77
2024/04/08 08:16:43;;;;;;;11.20;2.80;;;;;;;;;;5457288;26;20017;-76
2024/04/08 08:19:10;;;;;;;17.50;3.90;;;;;;;;;;5457527;26;20003;-77
2024/04/08 08:21:36;;;;;;;6.85;2.55;;;;;;;;;;5455786;26;20533;-77
2024/04/08 08:24:03;;;;;;;6.65;2.50;;;;;;;;;;5457183;26;20538;-77
2024/04/08 08:26:32;;;;;;;11.38;2.00;;;;;;;;;;5456573;26;20061;-77
2024/04/08 08:28:58;;;;;;;9.68;1.92;;;;;;;;;;5456790;26;20456;-76
2024/04/08 08:31:25;;;;;;;9.95;2.50;;;;;;;;;;5457804;26;20491;-77
2024/04/08 08:33:52;;;;;;;4.88;2.10;;;;;;;;;;5456947;26;20003;-77
2024/04/08 08:36:19;;;;;;;13.18;2.40;;;;;;;;;;5456954;26;20009;-77
2024/04/08 08:38:45;;;;;;;9.57;2.88;;;;;;;;;;5427321;26;20002;-77
2024/04/08 08:41:12;;;;;;;4.63;1.75;;;;;;;;;;5456992;26;20010;-77
2024/04/08 08:43:40;;;;;;;7.82;2.63;;;;;;;;;;5427484;26;20483;-77
2024/04/08 08:46:08;;;;;;;6.63;2.17;;;;;;;;;;5456427;26;20002;-77
2024/04/08 08:48:36;;;;;;;8.63;2.85;;;;;;;;;;5457068;26;19998;-76
2024/04/08 08:51:04;;;;;;;12.43;2.17;;;;;;;;;;5428494;26;20403;-77
2024/04/08 08:53:31;;;;;;;7.75;2.83;;;;;;;;;;5457823;26;20002;-77
2024/04/08 08:55:58;;;;;;;9.10;1.83;;;;;;;;;;5426348;26;20013;-77
2024/04/08 08:58:25;;;;;;;13.77;2.80;;;;;;;;;;5433772;26;20074;-75
2024/04/08 09:00:51;;;;;;;8.13;2.13;;;;;;;;;;5467177;26;19998;-76
2024/04/08 09:03:18;;;;;;;12.10;2.78;;;;;;;;;;5478280;26;20020;-76
2024/04/08 09:05:50;;;;;;;15.27;1.90;;;;;;;;;;5429122;26;20345;-76
2024/04/08 09:08:17;;;;;;;11.27;2.88;;;;;;;;;;5456580;26;20090;-76
2024/04/08 09:10:44;;;;;;;12.93;2.75;;;;;;;;;;5456307;26;20006;-76
2024/04/08 09:13:17;;;;;;;6.47;1.90;;;;;;;;;;5426591;26;19994;-76
2024/04/08 09:15:44;;;;;;;7.00;2.13;;;;;;;;;;5456241;26;19998;-77
2024/04/08 09:18:11;;;;;;;9.98;2.75;;;;;;;;;;5459022;26;20010;-78
2024/04/08 09:20:37;;;;;;;7.95;2.42;;;;;;;;;;5459260;26;20025;-78
2024/04/08 09:23:04;;;;;;;8.18;2.10;;;;;;;;;;5430104;26;20006;-78
2024/04/08 09:25:31;;;;;;;11.77;2.20;;;;;;;;;;5458588;26;19998;-77
2024/04/08 09:28:00;;;;;;;8.15;1.58;;;;;;;;;;5430220;26;20026;-77
2024/04/08 09:30:29;;;;;;;5.65;1.45;;;;;;;;;;5428339;26;20008;-76
2024/04/08 09:32:55;;;;;;;11.00;1.80;;;;;;;;;;5457355;26;20017;-76
2024/04/08 09:35:24;;;;;;;6.55;1.95;;;;;;;;;;5456516;26;19998;-76
2024/04/08 09:37:52;;;;;;;5.50;1.73;;;;;;;;;;5455272;26;20090;-77
2024/04/08 09:40:19;;;;;;;8.68;2.05;;;;;;;;;;5455560;26;20005;-77
2024/04/08 09:42:46;;;;;;;9.25;2.47;;;;;;;;;;5426257;26;20017;-76
2024/04/08 09:45:15;;;;;;;5.78;1.70;;;;;;;;;;5455884;26;20002;-77
2024/04/08 09:47:42;;;;;;;8.85;2.05;;;;;;;;;;5426208;26;20006;-77
2024/04/08 09:50:11;;;;;;;6.75;2.58;;;;;;;;;;5455496;26;20009;-77
2024/04/08 09:52:39;;;;;;;7.18;2.20;;;;;;;;;;5455988;26;20078;-76
2024/04/08 09:55:06;;;;;;;8.32;2.17;;;;;;;;;;5455376;26;19994;-77
2024/04/08 09:57:33;;;;;;;7.97;1.58;;;;;;;;;;5455225;26;20017;-77
2024/04/08 10:00:01;;;;;;;14.73;1.92;;;;;;;;;;5454981;26;20039;-76
2024/04/08 10:02:33;;;;;;;11.68;3.05;;;;;;;;;;5455413;26;20017;-76
2024/04/08 10:05:01;;;;;;;7.60;2.35;;;;;;;;;;5425512;26;20002;-77
2024/04/08 10:07:28;;;;;;;11.00;2.13;;;;;;;;;;5455147;26;20130;-76
2024/04/08 10:09:55;;;;;;;5.68;2.28;;;;;;;;;;5454890;26;20074;-76
2024/04/08 10:12:30;;;;;;;6.32;1.83;;;;;;;;;;5455064;26;20006;-77
2024/04/08 10:15:06;;;;;;;9.25;2.17;;;;;;;;;;5454774;26;20006;-76
2024/04/08 10:17:34;;;;;;;3.85;2.13;;;;;;;;;;5454859;26;20014;-77
2024/04/08 10:20:02;;;;;;;13.77;2.58;;;;;;;;;;5484795;26;19998;-77
2024/04/08 10:22:32;;;;;;;9.93;2.63;;;;;;;;;;5426716;26;20341;-77
2024/04/08 10:25:00;;;;;;;9.13;2.15;;;;;;;;;;5424638;26;19999;-77
2024/04/08 10:27:27;;;;;;;3.53;1.42;;;;;;;;;;5425270;26;20355;-76
2024/04/08 10:29:57;;;;;;;7.85;1.73;;;;;;;;;;5454895;26;20002;-77
2024/04/08 10:32:24;;;;;;;7.03;1.70;;;;;;;;;;5455706;26;20002;-77
2024/04/08 10:34:57;;;;;;;6.10;1.70;;;;;;;;;;5425649;26;20002;-76
2024/04/08 10:37:24;;;;;;;7.25;1.27;;;;;;;;;;5424824;26;19995;-77
2024/04/08 10:40:00;;;;;;;9.35;1.98;;;;;;;;;;5454306;26;20052;-77
2024/04/08 10:42:28;;;;;;;13.43;2.25;;;;;;;;;;5425895;26;20010;-76
2024/04/08 10:44:55;;;;;;;7.30;2.55;;;;;;;;;;5426608;26;20476;-77
2024/04/08 10:47:22;;;;;;;15.82;2.92;;;;;;;;;;5457987;26;20014;-76
2024/04/08 10:49:49;;;;;;;5.13;1.63;;;;;;;;;;5457914;26;20014;-77
2024/04/08 10:52:16;;;;;;;3.70;1.35;;;;;;;;;;5489962;26;20462;-77
2024/04/08 10:54:43;;;;;;;7.05;1.50;;;;;;;;;;5458233;26;20444;-77
2024/04/08 10:57:10;;;;;;;10.10;1.92;;;;;;;;;;5457664;26;20004;-77
2024/04/08 10:59:37;;;;;;;8.30;1.35;;;;;;;;;;5458121;26;20006;-76
2024/04/08 11:02:09;;;;;;;6.13;1.67;;;;;;;;;;5458042;26;20017;-76
2024/04/08 11:04:36;;;;;;;5.03;1.38;;;;;;;;;;5428425;26;20448;-77
2024/04/08 11:07:03;;;;;;;10.50;1.45;;;;;;;;;;5457544;26;20006;-76
2024/04/08 11:09:29;;;;;;;9.13;1.90;;;;;;;;;;5457651;26;20013;-77
2024/04/08 11:11:56;;;;;;;7.78;1.83;;;;;;;;;;5457835;26;20134;-77
2024/04/08 11:14:23;;;;;;;7.22;1.60;;;;;;;;;;5457714;26;20002;-77
2024/04/08 11:16:49;;;;;;;8.38;1.25;;;;;;;;;;5457416;26;20006;-77
2024/04/08 11:19:16;;;;;;;7.53;1.13;;;;;;;;;;5457835;26;20002;-77
2024/04/08 11:21:43;;;;;;;7.93;1.75;;;;;;;;;;5457990;26;20013;-77
2024/04/08 11:24:11;;;;;;;7.50;2.05;;;;;;;;;;5428415;26;19994;-77
2024/04/08 11:26:38;;;;;;;6.68;2.33;;;;;;;;;;5427917;26;20014;-76
2024/04/08 11:29:20;;;;;;;7.65;1.58;;;;;;;;;;5461632;26;20030;-76
2024/04/08 11:31:47;;;;;;;5.03;1.83;;;;;;;;;;5427232;26;20372;-76
2024/04/08 11:34:14;;;;;;;10.50;2.15;;;;;;;;;;5457454;26;20013;-77
2024/04/08 11:36:40;;;;;;;4.57;1.10;;;;;;;;;;5457265;26;20006;-76
2024/04/08 11:39:07;;;;;;;8.85;1.40;;;;;;;;;;5458215;26;20025;-76
2024/04/08 11:41:34;;;;;;;8.32;1.98;;;;;;;;;;5457521;26;20007;-77
2024/04/08 11:44:01;;;;;;;6.63;1.63;;;;;;;;;;5459385;26;19998;-77
2024/04/08 11:46:28;;;;;;;6.60;1.33;;;;;;;;;;5458393;26;20013;-77
2024/04/08 11:48:54;;;;;;;9.25;2.00;;;;;;;;;;5428960;26;20017;-77
2024/04/08 11:51:21;;;;;;;5.22;1.30;;;;;;;;;;5458216;26;20006;-77
2024/04/08 11:53:48;;;;;;;8.52;1.40;;;;;;;;;;5458625;26;20020;-77
2024/04/08 11:56:15;;;;;;;7.40;2.17;;;;;;;;;;5457821;26;20012;-77
2024/04/08 11:58:41;;;;;;;8.13;1.45;;;;;;;;;;5430615;26;20017;-76
2024/04/08 12:01:08;;;;;;;5.10;1.67;;;;;;;;;;5431263;26;20009;-76
2024/04/08 12:03:35;;;;;;;5.57;1.58;;;;;;;;;;5461486;26;20002;-76
2024/04/08 12:06:02;;;;;;;7.00;1.77;;;;;;;;;;5442497;26;20006;-76
2024/04/08 12:08:31;;;;;;;9.05;1.60;;;;;;;;;;5477713;26;20010;-77
2024/04/08 12:10:58;;;;;;;14.10;1.90;;;;;;;;;;5458200;26;20017;-77
2024/04/08 12:13:26;;;;;;;9.27;2.20;;;;;;;;;;5462729;26;19990;-77
2024/04/08 12:15:53;;;;;;;11.35;2.30;;;;;;;;;;5477021;26;20051;-76
2024/04/08 12:18:19;;;;;;;6.07;1.42;;;;;;;;;;5464330;26;20078;-77
2024/04/08 12:20:46;;;;;;;6.72;2.03;;;;;;;;;;5488878;26;20013;-77
2024/04/08 12:23:13;;;;;;;7.45;1.30;;;;;;;;;;5457230;26;20002;-77
2024/04/08 12:25:40;;;;;;;10.45;2.08;;;;;;;;;;5457328;26;20077;-76
2024/04/08 12:28:10;;;;;;;6.38;1.65;;;;;;;;;;5426773;26;20078;-77
2024/04/08 12:30:36;;;;;;;9.18;2.10;;;;;;;;;;5426960;26;20002;-77
2024/04/08 12:33:03;;;;;;;9.82;1.85;;;;;;;;;;5457019;26;20457;-77
2024/04/08 12:35:30;;;;;;;11.43;1.58;;;;;;;;;;5456744;26;20081;-77
2024/04/08 12:37:57;;;;;;;10.05;1.13;;;;;;;;;;5426628;26;20002;-77
2024/04/08 12:40:24;;;;;;;5.80;1.67;;;;;;;;;;5426735;26;20002;-77
2024/04/08 12:42:50;;;;;;;7.90;2.05;;;;;;;;;;5489049;26;20005;-77
2024/04/08 12:45:17;;;;;;;6.35;1.48;;;;;;;;;;5457149;26;19994;-77
2024/04/08 12:47:44;;;;;;;6.43;1.85;;;;;;;;;;5456639;26;20017;-76
2024/04/08 12:50:11;;;;;;;6.45;1.42;;;;;;;;;;5457787;26;20018;-77
2024/04/08 12:52:40;;;;;;;7.30;2.10;;;;;;;;;;5457970;26;20002;-77
2024/04/08 12:55:07;;;;;;;9.10;1.80;;;;;;;;;;5456819;26;20042;-77
2024/04/08 12:57:34;;;;;;;8.40;2.92;;;;;;;;;;5456337;26;20017;-77
2024/04/08 13:00:01;;;;;;;13.18;2.25;;;;;;;;;;5456142;26;20470;-77
2024/04/08 13:02:28;;;;;;;8.82;1.60;;;;;;;;;;5456433;26;20021;-77
2024/04/08 13:04:55;;;;;;;7.88;1.80;;;;;;;;;;5456075;26;20010;-76
2024/04/08 13:07:21;;;;;;;11.02;2.03;;;;;;;;;;5454994;26;20016;-77
2024/04/08 13:09:51;;;;;;;8.10;2.40;;;;;;;;;;5426227;26;20013;-77
2024/04/08 13:12:18;;;;;;;10.90;2.25;;;;;;;;;;5456276;26;20371;-77
2024/04/08 13:14:45;;;;;;;9.57;2.50;;;;;;;;;;5456304;26;20002;-76
2024/04/08 13:17:12;;;;;;;14.20;2.17;;;;;;;;;;5455780;26;20165;-77
2024/04/08 13:19:38;;;;;;;10.95;1.85;;;;;;;;;;5455680;26;20002;-77
2024/04/08 13:22:09;;;;;;;5.13;2.20;;;;;;;;;;5456919;26;20002;-77
2024/04/08 13:24:36;;;;;;;11.00;2.15;;;;;;;;;;5456550;26;20009;-77
2024/04/08 13:27:02;;;;;;;9.68;2.42;;;;;;;;;;5485826;26;20006;-77
2024/04/08 13:29:29;;;;;;;7.47;1.92;;;;;;;;;;5455575;26;20002;-77
2024/04/08 13:31:56;;;;;;;10.10;2.00;;;;;;;;;;5455987;26;20006;-77
2024/04/08 13:34:23;;;;;;;10.48;1.83;;;;;;;;;;5455736;26;20004;-77
2024/04/08 13:36:50;;;;;;;12.23;1.95;;;;;;;;;;5455072;26;20417;-77
2024/04/08 13:39:19;;;;;;;11.85;2.97;;;;;;;;;;5425865;26;20013;-77
2024/04/08 13:41:47;;;;;;;10.48;2.25;;;;;;;;;;5426949;26;20002;-77
2024/04/08 13:44:14;;;;;;;9.25;2.38;;;;;;;;;;5455793;26;19998;-77
2024/04/08 13:46:41;;;;;;;16.25;3.05;;;;;;;;;;5425574;26;20017;-77
2024/04/08 13:49:07;;;;;;;19.98;3.60;;;;;;;;;;5425825;26;20006;-77
2024/04/08 13:51:34;;;;;;;15.70;3.22;;;;;;;;;;5455608;26;20002;-77
2024/04/08 13:54:01;;;;;;;23.17;3.97;;;;;;;;;;5455602;26;20014;-77
2024/04/08 13:56:28;;;;;;;19.75;3.55;;;;;;;;;;5455246;26;20013;-77
2024/04/08 13:58:55;;;;;;;20.45;3.67;;;;;;;;;;5455812;26;20002;-77
2024/04/08 14:01:21;;;;;;;21.42;3.88;;;;;;;;;;5455409;26;20006;-77
2024/04/08 14:03:49;;;;;;;23.17;4.90;;;;;;;;;;5455256;26;20021;-77
2024/04/08 14:06:16;;;;;;;29.63;5.28;;;;;;;;;;5455418;26;19998;-77
2024/04/08 14:08:44;;;;;;;29.35;3.83;;;;;;;;;;5456147;26;20006;-77
2024/04/08 14:11:12;;;;;;;15.63;3.72;;;;;;;;;;5455549;26;19999;-77
2024/04/08 14:13:38;;;;;;;14.02;3.33;;;;;;;;;;5455446;26;20468;-77
2024/04/08 14:16:06;;;;;;;13.45;2.47;;;;;;;;;;5425139;26;20016;-77
2024/04/08 14:18:33;;;;;;;11.82;2.97;;;;;;;;;;5455906;26;20444;-77
2024/04/08 14:21:00;;;;;;;17.10;3.05;;;;;;;;;;5458898;26;20002;-77
2024/04/08 14:23:27;;;;;;;25.23;3.20;;;;;;;;;;5458805;26;20467;-76
2024/04/08 14:25:53;;;;;;;23.25;3.30;;;;;;;;;;5458795;26;20002;-77
2024/04/08 14:28:20;;;;;;;19.15;4.10;;;;;;;;;;5459031;26;20035;-76
2024/04/08 14:30:47;;;;;;;22.38;4.15;;;;;;;;;;5458774;26;20002;-77
2024/04/08 14:33:14;;;;;;;32.97;4.43;;;;;;;;;;5458777;26;20014;-77
2024/04/08 14:35:40;;;;;;;29.25;4.90;;;;;;;;;;5458672;26;20009;-76